sensor_id;sensor_type;location;lat;lon;timestamp;temperature;humidity
6174;DHT22;3120;48.796;9.796;2022-10-17T00:01:01;12.90;99.90
6174;DHT22;3120;48.796;9.796;2022-10-17T00:03:27;13.60;99.90
6174;DHT22;3120;48.796;9.796;2022-10-17T00:05:53;12.70;99.90
6174;DHT22;3120;48.796;9.796;2022-10-17T00:08:18;13.30;99.90
6174;DHT22;3120;48.796;9.796;2022-10-17T00:10:44;12.70;99.90
6174;DHT22;3120;48.796;9.796;2022-10-17T00:13:11;12.70;99.90
6174;DHT22;3120;48.796;9.796;2022-10-17T00:15:36;12.70;99.90
6174;DHT22;3120;48.796;9.796;2022-10-17T00:18:03;12.70;99.90
6174;DHT22;3120;48.796;9.796;2022-10-17T00:20:28;12.90;99.90
6174;DHT22;3120;48.796;9.796;2022-10-17T00:22:55;12.60;99.90
6174;DHT22;3120;48.796;9.796;2022-10-17T00:25:21;12.50;99.90
6174;DHT22;3120;48.796;9.796;2022-10-17T00:27:47;13.40;99.90
6174;DHT22;3120;48.796;9.796;2022-10-17T00:30:14;12.90;99.90
6174;DHT22;3120;48.796;9.796;2022-10-17T00:32:40;13.50;99.90
6174;DHT22;3120;48.796;9.796;2022-10-17T00:35:07;13.30;99.90
6174;DHT22;3120;48.796;9.796;2022-10-17T00:37:33;12.30;99.90
6174;DHT22;3120;48.796;9.796;2022-10-17T00:39:59;12.40;99.90
6174;DHT22;3120;48.796;9.796;2022-10-17T00:42:25;12.90;99.90
6174;DHT22;3120;48.796;9.796;2022-10-17T00:45:05;12.40;99.90
6174;DHT22;3120;48.796;9.796;2022-10-17T00:47:32;13.00;99.90
6174;DHT22;3120;48.796;9.796;2022-10-17T00:49:59;12.40;99.90
6174;DHT22;3120;48.796;9.796;2022-10-17T00:52:26;12.70;99.90
6174;DHT22;3120;48.796;9.796;2022-10-17T00:54:59;12.40;99.90
6174;DHT22;3120;48.796;9.796;2022-10-17T00:57:28;12.60;99.90
6174;DHT22;3120;48.796;9.796;2022-10-17T00:59:57;12.50;99.90
6174;DHT22;3120;48.796;9.796;2022-10-17T01:02:24;12.30;99.90
6174;DHT22;3120;48.796;9.796;2022-10-17T01:04:51;12.30;99.90
6174;DHT22;3120;48.796;9.796;2022-10-17T01:07:19;12.40;99.90
6174;DHT22;3120;48.796;9.796;2022-10-17T01:09:46;12.30;99.90
6174;DHT22;3120;48.796;9.796;2022-10-17T01:12:24;12.30;99.90
6174;DHT22;3120;48.796;9.796;2022-10-17T01:28:18;12.10;99.90
6174;DHT22;3120;48.796;9.796;2022-10-17T01:31:13;12.10;99.90
6174;DHT22;3120;48.796;9.796;2022-10-17T01:36:38;12.10;99.90
6174;DHT22;3120;48.796;9.796;2022-10-17T01:39:14;12.20;99.90
6174;DHT22;3120;48.796;9.796;2022-10-17T01:41:51;12.10;99.90
6174;DHT22;3120;48.796;9.796;2022-10-17T01:47:14;12.00;99.90
6174;DHT22;3120;48.796;9.796;2022-10-17T01:49:43;11.90;99.90
6174;DHT22;3120;48.796;9.796;2022-10-17T01:52:13;11.90;99.90
6174;DHT22;3120;48.796;9.796;2022-10-17T01:54:55;11.90;99.90
6174;DHT22;3120;48.796;9.796;2022-10-17T01:57:37;11.90;99.90
6174;DHT22;3120;48.796;9.796;2022-10-17T02:00:11;11.80;99.90
6174;DHT22;3120;48.796;9.796;2022-10-17T02:02:38;11.80;99.90
6174;DHT22;3120;48.796;9.796;2022-10-17T02:05:06;11.70;99.90
6174;DHT22;3120;48.796;9.796;2022-10-17T02:07:32;11.70;99.90
6174;DHT22;3120;48.796;9.796;2022-10-17T02:09:58;11.80;99.90
6174;DHT22;3120;48.796;9.796;2022-10-17T02:12:31;11.80;99.90
6174;DHT22;3120;48.796;9.796;2022-10-17T02:15:07;11.70;99.90
6174;DHT22;3120;48.796;9.796;2022-10-17T02:20:30;11.60;99.90
6174;DHT22;3120;48.796;9.796;2022-10-17T02:23:10;11.60;99.90
6174;DHT22;3120;48.796;9.796;2022-10-17T02:25:43;11.60;99.90
6174;DHT22;3120;48.796;9.796;2022-10-17T02:28:28;11.60;99.90
6174;DHT22;3120;48.796;9.796;2022-10-17T02:31:07;12.30;99.90
6174;DHT22;3120;48.796;9.796;2022-10-17T02:36:14;11.40;99.90
6174;DHT22;3120;48.796;9.796;2022-10-17T02:38:42;11.30;99.90
6174;DHT22;3120;48.796;9.796;2022-10-17T02:41:10;11.60;99.90
6174;DHT22;3120;48.796;9.796;2022-10-17T02:43:38;11.70;99.90
6174;DHT22;3120;48.796;9.796;2022-10-17T02:46:05;11.70;99.90
6174;DHT22;3120;48.796;9.796;2022-10-17T02:48:43;11.40;99.90
6174;DHT22;3120;48.796;9.796;2022-10-17T02:56:47;11.20;99.90
6174;DHT22;3120;48.796;9.796;2022-10-17T02:59:16;11.50;99.90
6174;DHT22;3120;48.796;9.796;2022-10-17T03:01:43;11.60;99.90
6174;DHT22;3120;48.796;9.796;2022-10-17T03:04:12;11.30;99.90
6174;DHT22;3120;48.796;9.796;2022-10-17T03:06:39;11.20;99.90
6174;DHT22;3120;48.796;9.796;2022-10-17T03:09:05;11.20;99.90
6174;DHT22;3120;48.796;9.796;2022-10-17T03:11:31;11.70;99.90
6174;DHT22;3120;48.796;9.796;2022-10-17T03:13:57;11.10;99.90
6174;DHT22;3120;48.796;9.796;2022-10-17T03:16:22;11.10;99.90
6174;DHT22;3120;48.796;9.796;2022-10-17T03:18:48;11.10;99.90
6174;DHT22;3120;48.796;9.796;2022-10-17T03:21:13;11.10;99.90
6174;DHT22;3120;48.796;9.796;2022-10-17T03:23:39;12.50;99.90
6174;DHT22;3120;48.796;9.796;2022-10-17T03:26:05;11.00;99.90
6174;DHT22;3120;48.796;9.796;2022-10-17T03:28:31;11.00;99.90
6174;DHT22;3120;48.796;9.796;2022-10-17T03:30:57;12.40;99.90
6174;DHT22;3120;48.796;9.796;2022-10-17T03:33:22;11.00;99.90
6174;DHT22;3120;48.796;9.796;2022-10-17T03:35:48;11.00;99.90
6174;DHT22;3120;48.796;9.796;2022-10-17T03:38:14;10.90;99.90
6174;DHT22;3120;48.796;9.796;2022-10-17T03:40:39;12.30;99.90
6174;DHT22;3120;48.796;9.796;2022-10-17T03:43:05;11.90;99.90
6174;DHT22;3120;48.796;9.796;2022-10-17T03:45:30;11.50;99.90
6174;DHT22;3120;48.796;9.796;2022-10-17T03:47:58;10.80;99.90
6174;DHT22;3120;48.796;9.796;2022-10-17T03:50:23;10.80;99.90
6174;DHT22;3120;48.796;9.796;2022-10-17T03:52:49;10.70;99.90
6174;DHT22;3120;48.796;9.796;2022-10-17T03:55:15;10.70;99.90
6174;DHT22;3120;48.796;9.796;2022-10-17T03:57:41;10.70;99.90
6174;DHT22;3120;48.796;9.796;2022-10-17T04:00:07;12.20;99.90
6174;DHT22;3120;48.796;9.796;2022-10-17T04:02:33;10.60;99.90
6174;DHT22;3120;48.796;9.796;2022-10-17T04:04:59;10.60;99.90
6174;DHT22;3120;48.796;9.796;2022-10-17T04:07:25;12.40;99.90
6174;DHT22;3120;48.796;9.796;2022-10-17T04:09:51;10.20;99.90
6174;DHT22;3120;48.796;9.796;2022-10-17T04:12:16;10.60;99.90
6174;DHT22;3120;48.796;9.796;2022-10-17T04:14:42;10.60;99.90
6174;DHT22;3120;48.796;9.796;2022-10-17T04:17:08;11.70;99.90
6174;DHT22;3120;48.796;9.796;2022-10-17T04:19:34;10.50;99.90
6174;DHT22;3120;48.796;9.796;2022-10-17T04:21:59;12.20;99.90
6174;DHT22;3120;48.796;9.796;2022-10-17T04:24:25;13.20;99.90
6174;DHT22;3120;48.796;9.796;2022-10-17T04:26:51;11.70;99.90
6174;DHT22;3120;48.796;9.796;2022-10-17T04:29:17;11.90;99.90
6174;DHT22;3120;48.796;9.796;2022-10-17T04:31:42;12.00;99.90
6174;DHT22;3120;48.796;9.796;2022-10-17T04:34:08;10.50;99.90
6174;DHT22;3120;48.796;9.796;2022-10-17T04:36:33;12.00;99.90
6174;DHT22;3120;48.796;9.796;2022-10-17T04:39:00;10.50;99.90
6174;DHT22;3120;48.796;9.796;2022-10-17T04:41:29;11.40;99.90
6174;DHT22;3120;48.796;9.796;2022-10-17T04:43:55;11.30;99.90
6174;DHT22;3120;48.796;9.796;2022-10-17T04:46:20;10.40;99.90
6174;DHT22;3120;48.796;9.796;2022-10-17T04:48:46;12.30;99.90
6174;DHT22;3120;48.796;9.796;2022-10-17T04:51:14;10.30;99.90
6174;DHT22;3120;48.796;9.796;2022-10-17T04:53:41;11.70;99.90
6174;DHT22;3120;48.796;9.796;2022-10-17T04:56:13;10.40;99.90
6174;DHT22;3120;48.796;9.796;2022-10-17T04:58:46;10.40;99.90
6174;DHT22;3120;48.796;9.796;2022-10-17T05:01:18;10.30;99.90
6174;DHT22;3120;48.796;9.796;2022-10-17T05:03:44;10.30;99.90
6174;DHT22;3120;48.796;9.796;2022-10-17T05:06:12;11.00;99.90
6174;DHT22;3120;48.796;9.796;2022-10-17T05:08:38;12.70;99.90
6174;DHT22;3120;48.796;9.796;2022-10-17T05:11:04;12.50;99.90
6174;DHT22;3120;48.796;9.796;2022-10-17T05:13:31;10.20;99.90
6174;DHT22;3120;48.796;9.796;2022-10-17T05:15:59;11.30;99.90
6174;DHT22;3120;48.796;9.796;2022-10-17T05:18:25;10.10;99.90
6174;DHT22;3120;48.796;9.796;2022-10-17T05:20:51;12.10;99.90
6174;DHT22;3120;48.796;9.796;2022-10-17T05:23:16;10.00;99.90
6174;DHT22;3120;48.796;9.796;2022-10-17T05:25:42;11.60;99.90
6174;DHT22;3120;48.796;9.796;2022-10-17T05:28:08;11.90;99.90
6174;DHT22;3120;48.796;9.796;2022-10-17T05:30:34;10.00;99.90
6174;DHT22;3120;48.796;9.796;2022-10-17T05:33:03;12.50;99.90
6174;DHT22;3120;48.796;9.796;2022-10-17T05:38:02;10.00;99.90
6174;DHT22;3120;48.796;9.796;2022-10-17T05:40:28;11.10;99.90
6174;DHT22;3120;48.796;9.796;2022-10-17T05:42:53;10.10;99.90
6174;DHT22;3120;48.796;9.796;2022-10-17T05:45:19;11.80;99.90
6174;DHT22;3120;48.796;9.796;2022-10-17T05:47:45;10.10;99.90
6174;DHT22;3120;48.796;9.796;2022-10-17T05:50:10;12.30;99.90
6174;DHT22;3120;48.796;9.796;2022-10-17T05:52:36;11.90;99.90
6174;DHT22;3120;48.796;9.796;2022-10-17T05:55:03;10.10;99.90
6174;DHT22;3120;48.796;9.796;2022-10-17T05:57:29;10.20;99.90
6174;DHT22;3120;48.796;9.796;2022-10-17T05:59:54;11.30;99.90
6174;DHT22;3120;48.796;9.796;2022-10-17T06:02:20;10.10;99.90
6174;DHT22;3120;48.796;9.796;2022-10-17T06:04:46;10.10;99.90
6174;DHT22;3120;48.796;9.796;2022-10-17T06:07:13;10.20;99.90
6174;DHT22;3120;48.796;9.796;2022-10-17T06:09:39;10.10;99.90
6174;DHT22;3120;48.796;9.796;2022-10-17T06:12:05;10.10;99.90
6174;DHT22;3120;48.796;9.796;2022-10-17T06:14:30;10.30;99.90
6174;DHT22;3120;48.796;9.796;2022-10-17T06:16:56;11.60;99.90
6174;DHT22;3120;48.796;9.796;2022-10-17T06:19:22;11.60;99.90
6174;DHT22;3120;48.796;9.796;2022-10-17T06:21:47;11.50;99.90
6174;DHT22;3120;48.796;9.796;2022-10-17T06:24:13;11.80;99.90
6174;DHT22;3120;48.796;9.796;2022-10-17T06:26:38;9.50;99.90
6174;DHT22;3120;48.796;9.796;2022-10-17T06:29:04;10.50;99.90
6174;DHT22;3120;48.796;9.796;2022-10-17T06:31:30;9.90;99.90
6174;DHT22;3120;48.796;9.796;2022-10-17T06:33:55;12.40;99.90
6174;DHT22;3120;48.796;9.796;2022-10-17T06:36:21;10.70;99.90
6174;DHT22;3120;48.796;9.796;2022-10-17T06:38:47;10.80;99.90
6174;DHT22;3120;48.796;9.796;2022-10-17T06:41:14;10.90;99.90
6174;DHT22;3120;48.796;9.796;2022-10-17T06:43:44;12.60;99.90
6174;DHT22;3120;48.796;9.796;2022-10-17T06:46:15;11.50;99.90
6174;DHT22;3120;48.796;9.796;2022-10-17T06:48:41;12.50;99.90
6174;DHT22;3120;48.796;9.796;2022-10-17T06:51:08;11.10;99.90
6174;DHT22;3120;48.796;9.796;2022-10-17T06:53:38;11.20;99.90
6174;DHT22;3120;48.796;9.796;2022-10-17T06:56:06;11.20;99.90
6174;DHT22;3120;48.796;9.796;2022-10-17T06:58:36;11.30;99.90
6174;DHT22;3120;48.796;9.796;2022-10-17T07:01:11;13.50;99.90
6174;DHT22;3120;48.796;9.796;2022-10-17T07:03:37;12.10;99.90
6174;DHT22;3120;48.796;9.796;2022-10-17T07:06:03;11.40;99.90
6174;DHT22;3120;48.796;9.796;2022-10-17T07:08:29;11.50;99.90
6174;DHT22;3120;48.796;9.796;2022-10-17T07:10:55;11.60;99.90
6174;DHT22;3120;48.796;9.796;2022-10-17T07:13:21;11.60;99.90
6174;DHT22;3120;48.796;9.796;2022-10-17T07:15:47;12.20;99.90
6174;DHT22;3120;48.796;9.796;2022-10-17T07:18:13;12.90;99.90
6174;DHT22;3120;48.796;9.796;2022-10-17T07:20:42;14.10;99.90
6174;DHT22;3120;48.796;9.796;2022-10-17T07:23:10;13.10;99.90
6174;DHT22;3120;48.796;9.796;2022-10-17T07:25:36;12.60;99.90
6174;DHT22;3120;48.796;9.796;2022-10-17T07:28:02;13.50;99.90
6174;DHT22;3120;48.796;9.796;2022-10-17T07:30:28;12.10;99.90
6174;DHT22;3120;48.796;9.796;2022-10-17T07:32:54;14.40;99.90
6174;DHT22;3120;48.796;9.796;2022-10-17T07:35:19;13.10;99.90
6174;DHT22;3120;48.796;9.796;2022-10-17T07:37:45;14.30;99.90
6174;DHT22;3120;48.796;9.796;2022-10-17T07:40:11;14.10;99.90
6174;DHT22;3120;48.796;9.796;2022-10-17T07:42:37;12.20;99.90
6174;DHT22;3120;48.796;9.796;2022-10-17T07:45:03;12.30;99.90
6174;DHT22;3120;48.796;9.796;2022-10-17T07:47:29;12.60;99.90
6174;DHT22;3120;48.796;9.796;2022-10-17T07:49:56;13.00;99.90
6174;DHT22;3120;48.796;9.796;2022-10-17T07:52:24;15.00;99.90
6174;DHT22;3120;48.796;9.796;2022-10-17T07:54:50;14.70;99.90
6174;DHT22;3120;48.796;9.796;2022-10-17T07:57:17;15.90;99.90
6174;DHT22;3120;48.796;9.796;2022-10-17T07:59:42;14.00;99.90
6174;DHT22;3120;48.796;9.796;2022-10-17T08:02:23;15.10;99.90
6174;DHT22;3120;48.796;9.796;2022-10-17T08:04:49;15.70;99.90
6174;DHT22;3120;48.796;9.796;2022-10-17T08:07:15;15.50;99.90
6174;DHT22;3120;48.796;9.796;2022-10-17T08:09:42;15.50;99.90
6174;DHT22;3120;48.796;9.796;2022-10-17T08:12:08;13.80;99.90
6174;DHT22;3120;48.796;9.796;2022-10-17T08:14:34;13.90;99.90
6174;DHT22;3120;48.796;9.796;2022-10-17T08:17:00;15.00;99.90
6174;DHT22;3120;48.796;9.796;2022-10-17T08:19:25;15.60;99.90
6174;DHT22;3120;48.796;9.796;2022-10-17T08:21:51;14.30;99.90
6174;DHT22;3120;48.796;9.796;2022-10-17T08:24:18;14.50;99.90
6174;DHT22;3120;48.796;9.796;2022-10-17T08:26:44;14.30;99.90
6174;DHT22;3120;48.796;9.796;2022-10-17T08:29:14;14.60;99.90
6174;DHT22;3120;48.796;9.796;2022-10-17T08:31:40;14.20;99.90
6174;DHT22;3120;48.796;9.796;2022-10-17T08:34:06;15.20;99.90
6174;DHT22;3120;48.796;9.796;2022-10-17T08:36:32;15.00;99.90
6174;DHT22;3120;48.796;9.796;2022-10-17T08:38:57;15.80;99.90
6174;DHT22;3120;48.796;9.796;2022-10-17T08:47:02;15.80;99.90
6174;DHT22;3120;48.796;9.796;2022-10-17T08:49:40;16.20;99.90
6174;DHT22;3120;48.796;9.796;2022-10-17T08:52:20;16.50;99.90
6174;DHT22;3120;48.796;9.796;2022-10-17T08:54:48;16.90;99.90
6174;DHT22;3120;48.796;9.796;2022-10-17T08:57:16;18.60;99.90
6174;DHT22;3120;48.796;9.796;2022-10-17T08:59:43;17.50;65.30
6174;DHT22;3120;48.796;9.796;2022-10-17T09:08:18;18.70;1.00
6174;DHT22;3120;48.796;9.796;2022-10-17T09:16:22;19.50;99.90
6174;DHT22;3120;48.796;9.796;2022-10-17T09:19:18;19.50;99.90
6174;DHT22;3120;48.796;9.796;2022-10-17T09:22:17;19.60;99.90
6174;DHT22;3120;48.796;9.796;2022-10-17T09:24:54;19.60;99.90
6174;DHT22;3120;48.796;9.796;2022-10-17T09:27:31;19.80;99.90
6174;DHT22;3120;48.796;9.796;2022-10-17T09:32:42;20.30;99.90
6174;DHT22;3120;48.796;9.796;2022-10-17T09:35:12;20.40;1.00
6174;DHT22;3120;48.796;9.796;2022-10-17T09:37:38;20.60;99.90
6174;DHT22;3120;48.796;9.796;2022-10-17T09:40:06;20.70;99.90
6174;DHT22;3120;48.796;9.796;2022-10-17T09:42:34;20.90;1.00
6174;DHT22;3120;48.796;9.796;2022-10-17T09:47:41;21.60;99.90
6174;DHT22;3120;48.796;9.796;2022-10-17T09:50:24;21.40;99.90
6174;DHT22;3120;48.796;9.796;2022-10-17T09:52:52;21.70;1.00
6174;DHT22;3120;48.796;9.796;2022-10-17T09:57:57;22.00;1.00
6174;DHT22;3120;48.796;9.796;2022-10-17T10:00:38;22.20;99.90
6174;DHT22;3120;48.796;9.796;2022-10-17T10:03:20;23.20;1.00
6174;DHT22;3120;48.796;9.796;2022-10-17T10:11:04;22.00;19.90
6174;DHT22;3120;48.796;9.796;2022-10-17T10:13:32;22.20;1.00
6174;DHT22;3120;48.796;9.796;2022-10-17T10:18:42;22.40;1.00
6174;DHT22;3120;48.796;9.796;2022-10-17T10:21:13;23.90;1.00
6174;DHT22;3120;48.796;9.796;2022-10-17T10:23:44;22.50;99.90
6174;DHT22;3120;48.796;9.796;2022-10-17T10:26:20;22.50;1.00
6174;DHT22;3120;48.796;9.796;2022-10-17T10:29:01;22.80;99.90
6174;DHT22;3120;48.796;9.796;2022-10-17T10:31:36;23.00;1.00
6174;DHT22;3120;48.796;9.796;2022-10-17T10:41:52;23.40;99.90
6174;DHT22;3120;48.796;9.796;2022-10-17T10:44:21;23.50;1.00
6174;DHT22;3120;48.796;9.796;2022-10-17T10:47:14;23.60;53.70
6174;DHT22;3120;48.796;9.796;2022-10-17T10:49:41;23.80;1.00
6174;DHT22;3120;48.796;9.796;2022-10-17T10:52:14;23.70;2.20
6174;DHT22;3120;48.796;9.796;2022-10-17T10:54:56;23.50;1.00
6174;DHT22;3120;48.796;9.796;2022-10-17T10:57:28;23.50;99.90
6174;DHT22;3120;48.796;9.796;2022-10-17T10:59:59;23.60;11.40
6174;DHT22;3120;48.796;9.796;2022-10-17T11:02:40;23.40;92.50
6174;DHT22;3120;48.796;9.796;2022-10-17T11:05:26;23.40;81.60
6174;DHT22;3120;48.796;9.796;2022-10-17T11:08:15;23.30;99.90
6174;DHT22;3120;48.796;9.796;2022-10-17T11:11:16;23.30;99.90
6174;DHT22;3120;48.796;9.796;2022-10-17T11:16:38;23.30;99.90
6174;DHT22;3120;48.796;9.796;2022-10-17T11:19:19;23.40;99.90
6174;DHT22;3120;48.796;9.796;2022-10-17T11:27:09;23.60;99.90
6174;DHT22;3120;48.796;9.796;2022-10-17T11:29:37;23.50;99.90
6174;DHT22;3120;48.796;9.796;2022-10-17T11:32:27;23.60;1.00
6174;DHT22;3120;48.796;9.796;2022-10-17T11:35:04;23.60;1.00
6174;DHT22;3120;48.796;9.796;2022-10-17T11:37:36;23.60;1.00
6174;DHT22;3120;48.796;9.796;2022-10-17T11:42:57;23.40;1.00
6174;DHT22;3120;48.796;9.796;2022-10-17T11:45:26;23.50;1.00
6174;DHT22;3120;48.796;9.796;2022-10-17T11:48:05;23.40;99.90
6174;DHT22;3120;48.796;9.796;2022-10-17T11:50:37;23.50;99.90
6174;DHT22;3120;48.796;9.796;2022-10-17T11:53:18;23.40;99.90
6174;DHT22;3120;48.796;9.796;2022-10-17T11:55:47;23.40;99.90
6174;DHT22;3120;48.796;9.796;2022-10-17T11:58:34;23.60;99.90
6174;DHT22;3120;48.796;9.796;2022-10-17T12:06:48;23.70;99.90
6174;DHT22;3120;48.796;9.796;2022-10-17T12:12:01;23.90;99.90
6174;DHT22;3120;48.796;9.796;2022-10-17T12:17:34;23.90;99.90
6174;DHT22;3120;48.796;9.796;2022-10-17T12:20:24;23.90;99.90
6174;DHT22;3120;48.796;9.796;2022-10-17T12:23:02;23.90;99.90
6174;DHT22;3120;48.796;9.796;2022-10-17T12:25:30;23.90;1.10
6174;DHT22;3120;48.796;9.796;2022-10-17T12:28:23;23.80;91.80
6174;DHT22;3120;48.796;9.796;2022-10-17T12:30:51;23.90;1.00
6174;DHT22;3120;48.796;9.796;2022-10-17T12:33:21;24.00;1.00
6174;DHT22;3120;48.796;9.796;2022-10-17T12:38:46;24.10;1.00
6174;DHT22;3120;48.796;9.796;2022-10-17T12:41:12;24.10;1.00
6174;DHT22;3120;48.796;9.796;2022-10-17T12:46:51;24.10;1.00
6174;DHT22;3120;48.796;9.796;2022-10-17T12:49:45;24.10;1.00
6174;DHT22;3120;48.796;9.796;2022-10-17T12:52:17;24.20;1.00
6174;DHT22;3120;48.796;9.796;2022-10-17T12:55:45;24.20;14.00
6174;DHT22;3120;48.796;9.796;2022-10-17T12:57:54;24.10;1.00
6174;DHT22;3120;48.796;9.796;2022-10-17T13:00:34;24.10;13.90
6174;DHT22;3120;48.796;9.796;2022-10-17T13:05:53;24.10;1.00
6174;DHT22;3120;48.796;9.796;2022-10-17T13:08:29;24.20;1.00
6174;DHT22;3120;48.796;9.796;2022-10-17T13:10:56;24.20;1.00
6174;DHT22;3120;48.796;9.796;2022-10-17T13:16:05;24.20;1.00
6174;DHT22;3120;48.796;9.796;2022-10-17T13:18:31;24.30;1.00
6174;DHT22;3120;48.796;9.796;2022-10-17T13:21:01;24.30;1.00
6174;DHT22;3120;48.796;9.796;2022-10-17T13:23:35;24.30;1.00
6174;DHT22;3120;48.796;9.796;2022-10-17T13:28:34;24.20;1.00
6174;DHT22;3120;48.796;9.796;2022-10-17T13:31:00;24.10;1.00
6174;DHT22;3120;48.796;9.796;2022-10-17T13:33:38;24.10;1.00
6174;DHT22;3120;48.796;9.796;2022-10-17T13:36:07;24.10;1.00
6174;DHT22;3120;48.796;9.796;2022-10-17T13:38:37;24.10;1.00
6174;DHT22;3120;48.796;9.796;2022-10-17T13:41:03;24.00;1.00
6174;DHT22;3120;48.796;9.796;2022-10-17T13:43:34;23.90;1.00
6174;DHT22;3120;48.796;9.796;2022-10-17T13:46:01;23.90;1.00
6174;DHT22;3120;48.796;9.796;2022-10-17T13:48:33;24.10;9.60
6174;DHT22;3120;48.796;9.796;2022-10-17T13:51:02;23.90;1.00
6174;DHT22;3120;48.796;9.796;2022-10-17T13:53:35;23.90;1.00
6174;DHT22;3120;48.796;9.796;2022-10-17T13:56:16;23.90;1.00
6174;DHT22;3120;48.796;9.796;2022-10-17T13:58:47;24.00;1.00
6174;DHT22;3120;48.796;9.796;2022-10-17T14:01:13;24.00;1.00
6174;DHT22;3120;48.796;9.796;2022-10-17T14:03:40;23.90;1.00
6174;DHT22;3120;48.796;9.796;2022-10-17T14:06:11;24.00;1.00
6174;DHT22;3120;48.796;9.796;2022-10-17T14:09:01;24.00;33.60
6174;DHT22;3120;48.796;9.796;2022-10-17T14:11:34;23.90;14.00
6174;DHT22;3120;48.796;9.796;2022-10-17T14:14:02;23.90;99.90
6174;DHT22;3120;48.796;9.796;2022-10-17T14:16:40;23.80;99.90
6174;DHT22;3120;48.796;9.796;2022-10-17T14:19:20;23.80;99.90
6174;DHT22;3120;48.796;9.796;2022-10-17T14:21:51;23.80;49.60
6174;DHT22;3120;48.796;9.796;2022-10-17T14:26:53;23.70;48.30
6174;DHT22;3120;48.796;9.796;2022-10-17T14:31:57;23.70;99.90
6174;DHT22;3120;48.796;9.796;2022-10-17T14:34:28;23.60;99.90
6174;DHT22;3120;48.796;9.796;2022-10-17T14:36:55;23.60;99.90
6174;DHT22;3120;48.796;9.796;2022-10-17T14:39:25;23.70;54.50
6174;DHT22;3120;48.796;9.796;2022-10-17T14:41:52;23.60;96.50
6174;DHT22;3120;48.796;9.796;2022-10-17T14:44:19;23.50;99.90
6174;DHT22;3120;48.796;9.796;2022-10-17T14:46:47;23.50;99.90
6174;DHT22;3120;48.796;9.796;2022-10-17T14:49:36;23.50;99.90
6174;DHT22;3120;48.796;9.796;2022-10-17T14:54:39;23.20;99.90
6174;DHT22;3120;48.796;9.796;2022-10-17T14:57:16;23.20;99.90
6174;DHT22;3120;48.796;9.796;2022-10-17T14:59:42;23.30;99.90
6174;DHT22;3120;48.796;9.796;2022-10-17T15:02:08;23.20;99.90
6174;DHT22;3120;48.796;9.796;2022-10-17T15:04:34;23.10;99.90
6174;DHT22;3120;48.796;9.796;2022-10-17T15:06:59;23.10;99.90
6174;DHT22;3120;48.796;9.796;2022-10-17T15:09:25;22.90;99.90
6174;DHT22;3120;48.796;9.796;2022-10-17T15:11:59;23.00;99.90
6174;DHT22;3120;48.796;9.796;2022-10-17T15:19:23;22.90;99.90
6174;DHT22;3120;48.796;9.796;2022-10-17T15:21:49;22.80;1.00
6174;DHT22;3120;48.796;9.796;2022-10-17T15:24:15;22.70;1.00
6174;DHT22;3120;48.796;9.796;2022-10-17T15:26:40;22.60;1.00
6174;DHT22;3120;48.796;9.796;2022-10-17T15:29:06;22.50;99.90
6174;DHT22;3120;48.796;9.796;2022-10-17T15:31:31;22.40;1.00
6174;DHT22;3120;48.796;9.796;2022-10-17T15:33:57;22.30;1.00
6174;DHT22;3120;48.796;9.796;2022-10-17T15:36:39;22.20;16.40
6174;DHT22;3120;48.796;9.796;2022-10-17T15:39:04;22.10;88.60
6174;DHT22;3120;48.796;9.796;2022-10-17T15:41:31;22.10;99.90
6174;DHT22;3120;48.796;9.796;2022-10-17T15:43:57;22.00;13.50
6174;DHT22;3120;48.796;9.796;2022-10-17T15:46:26;21.90;1.00
6174;DHT22;3120;48.796;9.796;2022-10-17T15:48:53;21.80;1.00
6174;DHT22;3120;48.796;9.796;2022-10-17T15:51:20;21.60;99.90
6174;DHT22;3120;48.796;9.796;2022-10-17T15:53:46;21.60;99.90
6174;DHT22;3120;48.796;9.796;2022-10-17T15:56:23;21.50;99.90
6174;DHT22;3120;48.796;9.796;2022-10-17T15:58:50;21.40;99.90
6174;DHT22;3120;48.796;9.796;2022-10-17T16:01:26;21.30;99.90
6174;DHT22;3120;48.796;9.796;2022-10-17T16:03:53;21.10;99.90
6174;DHT22;3120;48.796;9.796;2022-10-17T16:06:19;20.90;1.00
6174;DHT22;3120;48.796;9.796;2022-10-17T16:08:46;20.80;99.90
6174;DHT22;3120;48.796;9.796;2022-10-17T16:11:34;20.70;99.90
6174;DHT22;3120;48.796;9.796;2022-10-17T16:14:02;20.60;1.00
6174;DHT22;3120;48.796;9.796;2022-10-17T16:16:28;20.50;1.00
6174;DHT22;3120;48.796;9.796;2022-10-17T16:18:53;20.70;1.00
6174;DHT22;3120;48.796;9.796;2022-10-17T16:21:24;20.20;1.00
6174;DHT22;3120;48.796;9.796;2022-10-17T16:23:50;20.10;1.00
6174;DHT22;3120;48.796;9.796;2022-10-17T16:26:15;20.10;1.00
6174;DHT22;3120;48.796;9.796;2022-10-17T16:28:43;19.90;1.00
6174;DHT22;3120;48.796;9.796;2022-10-17T16:31:18;19.80;9.10
6174;DHT22;3120;48.796;9.796;2022-10-17T16:33:44;19.60;30.00
6174;DHT22;3120;48.796;9.796;2022-10-17T16:36:10;20.40;45.80
6174;DHT22;3120;48.796;9.796;2022-10-17T16:38:36;19.60;57.90
6174;DHT22;3120;48.796;9.796;2022-10-17T16:41:01;19.30;76.60
6174;DHT22;3120;48.796;9.796;2022-10-17T16:43:27;19.20;99.90
6174;DHT22;3120;48.796;9.796;2022-10-17T16:45:56;19.10;99.90
6174;DHT22;3120;48.796;9.796;2022-10-17T16:48:22;19.00;99.90
6174;DHT22;3120;48.796;9.796;2022-10-17T16:50:47;18.90;99.90
6174;DHT22;3120;48.796;9.796;2022-10-17T16:53:13;18.80;99.90
6174;DHT22;3120;48.796;9.796;2022-10-17T16:55:38;18.70;99.90
6174;DHT22;3120;48.796;9.796;2022-10-17T16:58:04;18.70;99.90
6174;DHT22;3120;48.796;9.796;2022-10-17T17:00:29;18.60;99.90
6174;DHT22;3120;48.796;9.796;2022-10-17T17:02:55;18.60;99.90
6174;DHT22;3120;48.796;9.796;2022-10-17T17:05:21;18.50;99.90
6174;DHT22;3120;48.796;9.796;2022-10-17T17:07:46;18.40;99.90
6174;DHT22;3120;48.796;9.796;2022-10-17T17:10:12;18.30;99.90
6174;DHT22;3120;48.796;9.796;2022-10-17T17:12:37;18.50;99.90
6174;DHT22;3120;48.796;9.796;2022-10-17T17:15:03;18.10;99.90
6174;DHT22;3120;48.796;9.796;2022-10-17T17:17:29;18.00;99.90
6174;DHT22;3120;48.796;9.796;2022-10-17T17:19:55;17.80;99.90
6174;DHT22;3120;48.796;9.796;2022-10-17T17:22:21;17.80;99.90
6174;DHT22;3120;48.796;9.796;2022-10-17T17:24:50;17.90;99.90
6174;DHT22;3120;48.796;9.796;2022-10-17T17:27:15;18.10;99.90
6174;DHT22;3120;48.796;9.796;2022-10-17T17:29:52;18.60;99.90
6174;DHT22;3120;48.796;9.796;2022-10-17T17:35:13;17.50;99.90
6174;DHT22;3120;48.796;9.796;2022-10-17T17:41:09;17.70;99.90
6174;DHT22;3120;48.796;9.796;2022-10-17T17:47:39;16.90;99.90
6174;DHT22;3120;48.796;9.796;2022-10-17T17:50:16;17.10;99.90
6174;DHT22;3120;48.796;9.796;2022-10-17T17:53:25;16.80;99.90
6174;DHT22;3120;48.796;9.796;2022-10-17T17:56:13;16.90;99.90
6174;DHT22;3120;48.796;9.796;2022-10-17T17:59:34;17.10;99.90
6174;DHT22;3120;48.796;9.796;2022-10-17T18:02:15;16.80;99.90
6174;DHT22;3120;48.796;9.796;2022-10-17T18:05:25;16.70;99.90
6174;DHT22;3120;48.796;9.796;2022-10-17T18:08:11;16.60;99.90
6174;DHT22;3120;48.796;9.796;2022-10-17T18:10:49;15.40;99.90
6174;DHT22;3120;48.796;9.796;2022-10-17T18:13:53;16.50;99.90
6174;DHT22;3120;48.796;9.796;2022-10-17T18:16:58;16.40;99.90
6174;DHT22;3120;48.796;9.796;2022-10-17T18:19:38;16.30;99.90
6174;DHT22;3120;48.796;9.796;2022-10-17T18:22:31;16.30;99.90
6174;DHT22;3120;48.796;9.796;2022-10-17T18:25:00;15.50;99.90
6174;DHT22;3120;48.796;9.796;2022-10-17T18:34:00;16.00;99.90
6174;DHT22;3120;48.796;9.796;2022-10-17T18:36:55;16.50;99.90
6174;DHT22;3120;48.796;9.796;2022-10-17T18:43:27;15.80;99.90
6174;DHT22;3120;48.796;9.796;2022-10-17T18:50:02;15.90;99.90
6174;DHT22;3120;48.796;9.796;2022-10-17T18:52:28;15.60;99.90